Time;durP1;ratioP1;P1;durP2;ratioP2;P2;SDS_P1;SDS_P2;PMS_P1;PMS_P2;Temp;Humidity;BMP_temperature;BMP_pressure;BME280_temperature;BME280_humidity;BME280_pressure;Samples;Min_cycle;Max_cycle;Signal;HPM_P1;HPM_P2
2023/08/18 00:02:24;;;;;;;7.97;5.20;;;23.50;79.80;;;;;;5035608;28;20037;-84
2023/08/18 00:04:50;;;;;;;6.07;5.25;;;23.50;79.90;;;;;;5035746;28;20035;-84
2023/08/18 00:07:16;;;;;;;6.10;5.32;;;23.50;80.00;;;;;;5036198;28;20041;-84
2023/08/18 00:09:43;;;;;;;8.85;4.93;;;23.50;80.00;;;;;;5035309;28;20030;-84
2023/08/18 00:12:09;;;;;;;7.00;5.00;;;23.50;80.10;;;;;;5035871;28;20024;-84
2023/08/18 00:14:35;;;;;;;6.30;5.13;;;23.50;80.00;;;;;;5035626;28;20030;-84
2023/08/18 00:17:01;;;;;;;7.07;5.30;;;23.50;80.20;;;;;;5033353;28;20029;-84
2023/08/18 00:19:27;;;;;;;7.47;5.30;;;23.50;80.30;;;;;;5035469;28;20030;-84
2023/08/18 00:21:53;;;;;;;9.65;5.35;;;23.50;80.60;;;;;;5035461;28;20041;-84
2023/08/18 00:24:18;;;;;;;8.30;5.55;;;23.50;80.80;;;;;;5035341;28;20010;-84
2023/08/18 00:26:45;;;;;;;7.47;5.57;;;23.40;80.80;;;;;;5035380;28;20026;-84
2023/08/18 00:29:11;;;;;;;5.60;5.00;;;23.50;80.90;;;;;;5035433;28;20136;-84
2023/08/18 00:31:37;;;;;;;7.70;5.40;;;23.40;81.00;;;;;;5034360;28;20026;-84
2023/08/18 00:34:03;;;;;;;7.35;4.80;;;23.40;80.70;;;;;;5035683;28;20081;-84
2023/08/18 00:36:31;;;;;;;6.28;5.00;;;23.40;80.70;;;;;;5034861;28;20022;-84
2023/08/18 00:38:58;;;;;;;5.88;5.10;;;23.40;80.80;;;;;;5035012;28;20026;-85
2023/08/18 00:41:24;;;;;;;5.32;4.82;;;23.30;80.70;;;;;;5036173;28;20036;-85
2023/08/18 00:43:50;;;;;;;5.50;4.78;;;23.30;80.60;;;;;;5036572;28;20033;-85
2023/08/18 00:46:18;;;;;;;6.05;5.32;;;23.30;80.60;;;;;;5035271;28;20057;-85
2023/08/18 00:48:44;;;;;;;5.50;4.72;;;23.30;80.70;;;;;;5036332;28;20065;-85
2023/08/18 00:51:11;;;;;;;6.13;5.43;;;23.30;80.70;;;;;;5034053;28;20006;-85
2023/08/18 00:53:39;;;;;;;6.95;5.50;;;23.30;80.80;;;;;;5032015;28;20027;-85
2023/08/18 00:56:07;;;;;;;5.93;5.28;;;23.30;80.80;;;;;;5031198;28;20041;-85
2023/08/18 00:58:34;;;;;;;6.93;5.85;;;23.30;80.80;;;;;;5015682;28;20095;-85
2023/08/18 01:01:01;;;;;;;6.25;4.95;;;23.20;80.90;;;;;;5031424;28;20118;-84
2023/08/18 01:03:26;;;;;;;5.80;5.20;;;23.20;80.90;;;;;;5029946;28;20049;-84
2023/08/18 01:05:52;;;;;;;6.30;5.40;;;23.20;80.90;;;;;;5030433;28;20034;-84
2023/08/18 01:08:18;;;;;;;6.13;4.78;;;23.20;80.90;;;;;;5030075;28;20030;-84
2023/08/18 01:10:50;;;;;;;8.98;5.78;;;23.20;80.80;;;;;;5015375;28;20018;-84
2023/08/18 01:13:21;;;;;;;6.93;4.93;;;23.10;80.80;;;;;;5015842;28;20054;-84
2023/08/18 01:15:52;;;;;;;6.28;5.22;;;23.20;81.10;;;;;;5015731;28;20010;-84
2023/08/18 01:18:19;;;;;;;5.50;5.00;;;23.20;81.40;;;;;;5030807;28;20022;-84
2023/08/18 01:20:47;;;;;;;7.25;5.55;;;23.10;81.20;;;;;;5030607;28;20022;-84
2023/08/18 01:23:13;;;;;;;8.10;5.10;;;23.10;80.90;;;;;;5015518;28;20034;-84
2023/08/18 01:25:39;;;;;;;6.00;5.13;;;23.10;81.40;;;;;;5030084;28;20046;-84
2023/08/18 01:28:06;;;;;;;6.88;5.18;;;23.10;81.00;;;;;;5030229;28;20033;-84
2023/08/18 01:30:34;;;;;;;5.63;4.93;;;23.10;81.30;;;;;;5031388;28;20025;-84
2023/08/18 01:33:21;;;;;;;6.45;5.57;;;23.10;81.10;;;;;;5015406;28;20474;-85
2023/08/18 01:35:48;;;;;;;5.97;5.25;;;23.10;80.40;;;;;;5016029;28;20030;-84
2023/08/18 01:38:16;;;;;;;5.70;5.18;;;23.00;80.90;;;;;;5031062;28;20030;-84
2023/08/18 01:40:42;;;;;;;7.07;5.50;;;23.10;81.80;;;;;;5031083;28;20031;-85
2023/08/18 01:43:08;;;;;;;7.93;5.50;;;23.10;81.40;;;;;;5031775;28;20015;-85
2023/08/18 01:45:35;;;;;;;8.07;5.18;;;23.10;81.50;;;;;;5032228;28;20030;-85
2023/08/18 01:48:01;;;;;;;5.95;4.60;;;23.10;81.70;;;;;;5016655;28;20124;-84
2023/08/18 01:50:26;;;;;;;7.70;5.20;;;23.10;81.60;;;;;;5031031;28;20034;-84
2023/08/18 01:52:52;;;;;;;5.55;5.00;;;23.10;81.30;;;;;;5030159;28;20030;-84
2023/08/18 01:55:18;;;;;;;9.75;5.13;;;23.10;81.30;;;;;;5014492;28;20023;-84
2023/08/18 01:57:43;;;;;;;6.03;5.38;;;23.10;81.40;;;;;;5029585;28;20034;-84
2023/08/18 02:00:09;;;;;;;5.85;5.28;;;23.10;81.40;;;;;;5029808;28;20023;-84
2023/08/18 02:02:35;;;;;;;5.97;5.38;;;23.10;81.30;;;;;;5029893;28;20569;-85
2023/08/18 02:05:01;;;;;;;7.78;5.13;;;23.10;81.20;;;;;;5029959;28;20026;-85
2023/08/18 02:07:27;;;;;;;8.18;5.00;;;23.10;81.20;;;;;;5030287;28;20085;-85
2023/08/18 02:09:53;;;;;;;5.68;5.07;;;23.10;81.10;;;;;;5014167;28;20093;-85
2023/08/18 02:12:18;;;;;;;7.45;5.20;;;23.10;80.90;;;;;;5014309;28;20030;-85
2023/08/18 02:14:44;;;;;;;6.80;5.00;;;23.10;80.90;;;;;;5029209;28;20057;-85
2023/08/18 02:17:09;;;;;;;5.95;4.93;;;23.00;81.00;;;;;;5029894;28;20030;-85
2023/08/18 02:19:35;;;;;;;5.63;4.90;;;23.00;80.90;;;;;;5013865;28;20023;-84
2023/08/18 02:22:01;;;;;;;5.57;4.93;;;23.00;81.00;;;;;;5029295;28;20023;-84
2023/08/18 02:24:26;;;;;;;5.53;4.75;;;22.90;80.90;;;;;;5029699;28;20121;-85
2023/08/18 02:26:52;;;;;;;5.90;5.13;;;22.90;80.90;;;;;;5014458;28;20029;-85
2023/08/18 02:29:18;;;;;;;6.05;5.45;;;22.90;81.00;;;;;;5028551;28;20042;-84
2023/08/18 02:31:43;;;;;;;6.35;4.95;;;22.90;81.00;;;;;;5028845;28;20027;-85
2023/08/18 02:34:09;;;;;;;6.57;5.60;;;22.90;81.40;;;;;;5013659;28;20064;-85
2023/08/18 02:36:35;;;;;;;5.28;4.63;;;22.90;81.30;;;;;;5028792;28;20045;-85
2023/08/18 02:39:02;;;;;;;6.28;4.78;;;22.80;80.90;;;;;;5012933;28;20006;-84
2023/08/18 02:41:27;;;;;;;6.13;4.82;;;22.80;80.30;;;;;;5028529;28;20052;-84
2023/08/18 02:43:53;;;;;;;4.85;4.35;;;22.80;80.30;;;;;;5011778;28;20057;-85
2023/08/18 02:46:19;;;;;;;7.03;4.90;;;22.80;80.60;;;;;;5012889;28;20022;-85
2023/08/18 02:48:45;;;;;;;6.38;5.68;;;22.80;80.70;;;;;;5012953;28;20038;-84
2023/08/18 02:51:11;;;;;;;7.50;5.57;;;22.80;80.30;;;;;;5012983;28;20030;-84
2023/08/18 02:53:37;;;;;;;6.47;5.03;;;22.80;80.00;;;;;;5046998;28;20030;-84
2023/08/18 02:56:03;;;;;;;5.97;5.25;;;22.80;80.40;;;;;;5032003;28;20037;-84
2023/08/18 02:58:30;;;;;;;8.35;5.25;;;22.90;80.40;;;;;;5032970;28;20030;-84
2023/08/18 03:01:00;;;;;;;7.05;5.40;;;22.80;80.30;;;;;;5032695;28;20030;-84
2023/08/18 03:03:25;;;;;;;8.47;5.47;;;22.80;80.30;;;;;;5031970;28;20021;-84
2023/08/18 03:05:51;;;;;;;8.00;5.30;;;22.90;80.50;;;;;;5031745;28;20302;-84
2023/08/18 03:08:18;;;;;;;6.28;4.68;;;22.90;80.50;;;;;;5030624;28;20101;-84
2023/08/18 03:10:44;;;;;;;5.88;5.28;;;22.90;80.30;;;;;;5031125;28;20089;-84
2023/08/18 03:13:09;;;;;;;7.30;5.13;;;23.00;80.20;;;;;;5031678;28;20041;-84
2023/08/18 03:15:41;;;;;;;5.82;5.10;;;22.90;80.20;;;;;;5031594;28;20085;-84
2023/08/18 03:18:07;;;;;;;6.00;4.75;;;23.00;80.20;;;;;;5030075;28;20121;-84
2023/08/18 03:20:33;;;;;;;5.65;4.78;;;23.00;80.40;;;;;;5030347;28;20053;-84
2023/08/18 03:22:59;;;;;;;7.35;4.85;;;23.10;80.60;;;;;;5030879;28;20038;-84
2023/08/18 03:25:24;;;;;;;5.97;5.15;;;23.10;80.60;;;;;;5030108;28;20033;-84
2023/08/18 03:27:50;;;;;;;7.65;4.95;;;23.20;80.10;;;;;;5030398;28;20034;-84
2023/08/18 03:30:16;;;;;;;7.65;5.20;;;23.20;80.30;;;;;;5031013;28;20060;-84
2023/08/18 03:32:42;;;;;;;6.43;4.57;;;23.30;79.50;;;;;;5030711;28;20054;-84
2023/08/18 03:35:08;;;;;;;5.60;5.07;;;23.30;79.60;;;;;;5029611;28;20042;-84
2023/08/18 03:37:33;;;;;;;7.28;5.43;;;23.40;79.50;;;;;;5029603;28;20065;-84
2023/08/18 03:39:59;;;;;;;6.45;5.00;;;23.40;78.80;;;;;;5030750;28;20045;-84
2023/08/18 03:42:25;;;;;;;6.00;5.15;;;23.50;78.40;;;;;;5030671;28;20037;-85
2023/08/18 03:44:50;;;;;;;5.93;4.90;;;23.50;78.60;;;;;;5030561;28;20030;-84
2023/08/18 03:47:16;;;;;;;6.20;4.80;;;23.60;78.70;;;;;;5031193;28;20034;-84
2023/08/18 03:49:42;;;;;;;7.05;5.60;;;23.60;78.40;;;;;;5033668;28;20030;-84
2023/08/18 03:52:07;;;;;;;6.32;5.00;;;23.60;78.30;;;;;;5033806;28;20038;-84
2023/08/18 03:54:33;;;;;;;6.95;5.13;;;23.60;78.00;;;;;;5032428;28;20050;-84
2023/08/18 03:56:58;;;;;;;6.25;4.90;;;23.70;77.80;;;;;;5032526;28;20041;-84
2023/08/18 03:59:24;;;;;;;7.32;5.07;;;23.70;77.40;;;;;;5034385;28;20045;-84
2023/08/18 04:01:50;;;;;;;6.00;5.40;;;23.80;77.50;;;;;;5032775;28;20390;-84
2023/08/18 04:04:15;;;;;;;6.57;5.15;;;23.80;77.20;;;;;;5032101;28;20025;-84
2023/08/18 04:06:41;;;;;;;6.35;5.72;;;23.90;77.30;;;;;;5033043;28;20033;-85
2023/08/18 04:09:17;;;;;;;6.93;5.55;;;24.00;77.50;;;;;;5032574;28;20053;-85
2023/08/18 04:11:43;;;;;;;6.35;5.25;;;24.10;77.20;;;;;;5034316;28;20531;-85
2023/08/18 04:14:09;;;;;;;6.97;5.15;;;24.20;76.70;;;;;;5034272;28;20029;-85
2023/08/18 04:16:35;;;;;;;6.05;5.30;;;24.30;76.40;;;;;;5035282;28;20157;-85
2023/08/18 04:19:03;;;;;;;6.35;5.40;;;24.30;76.20;;;;;;5033155;28;20034;-84
2023/08/18 04:21:29;;;;;;;7.07;5.30;;;24.40;75.70;;;;;;5034796;28;20052;-85
2023/08/18 04:23:55;;;;;;;6.13;5.53;;;24.50;74.90;;;;;;5034621;28;20466;-85
2023/08/18 04:26:21;;;;;;;5.97;5.22;;;24.60;74.40;;;;;;5035138;28;20042;-85
2023/08/18 04:28:47;;;;;;;6.53;5.55;;;24.70;74.20;;;;;;5035658;28;20057;-84
2023/08/18 04:31:13;;;;;;;7.28;5.47;;;24.80;73.90;;;;;;5035122;28;20029;-85
2023/08/18 04:33:39;;;;;;;6.15;4.90;;;24.90;73.30;;;;;;5034824;28;20022;-85
2023/08/18 04:36:04;;;;;;;6.30;5.10;;;24.90;72.90;;;;;;5033619;28;20045;-84
2023/08/18 04:38:31;;;;;;;5.70;4.88;;;24.90;72.60;;;;;;5033971;28;20037;-85
2023/08/18 04:40:58;;;;;;;6.10;5.50;;;24.80;72.70;;;;;;5034104;28;20037;-84
2023/08/18 04:43:24;;;;;;;5.88;4.97;;;24.80;73.00;;;;;;5034688;28;20029;-84
2023/08/18 04:45:50;;;;;;;6.45;5.25;;;24.90;73.20;;;;;;5033430;28;20064;-84
2023/08/18 04:48:16;;;;;;;6.53;5.18;;;25.10;73.00;;;;;;5026810;28;20034;-84
2023/08/18 04:50:42;;;;;;;8.70;5.90;;;25.20;72.60;;;;;;5025410;28;20040;-84
2023/08/18 04:53:07;;;;;;;7.65;5.18;;;25.30;71.90;;;;;;5026812;28;20022;-84
2023/08/18 04:55:33;;;;;;;6.07;5.10;;;25.30;71.70;;;;;;5025304;28;20034;-84
2023/08/18 04:57:59;;;;;;;5.60;5.00;;;25.30;71.20;;;;;;5025150;28;20033;-84
2023/08/18 05:00:25;;;;;;;5.72;5.18;;;25.30;70.80;;;;;;5027243;28;20053;-84
2023/08/18 05:02:51;;;;;;;8.20;5.78;;;25.30;70.60;;;;;;5025482;28;20035;-84
2023/08/18 05:05:18;;;;;;;6.60;5.57;;;25.20;71.00;;;;;;5025925;28;20025;-83
2023/08/18 05:07:43;;;;;;;6.63;5.60;;;25.20;71.30;;;;;;5027088;28;20029;-84
2023/08/18 05:10:09;;;;;;;6.30;5.28;;;25.20;71.30;;;;;;5026119;28;20147;-84
2023/08/18 05:12:35;;;;;;;7.28;6.25;;;25.20;71.20;;;;;;5025029;28;20106;-84
2023/08/18 05:15:00;;;;;;;9.50;6.15;;;25.20;71.10;;;;;;5024650;28;20025;-84
2023/08/18 05:17:27;;;;;;;7.25;5.65;;;25.20;71.00;;;;;;5023565;28;20053;-84
2023/08/18 05:19:52;;;;;;;7.10;5.80;;;25.30;70.90;;;;;;5025098;28;20022;-84
2023/08/18 05:22:21;;;;;;;6.15;5.55;;;25.20;71.20;;;;;;5024583;28;20129;-84
2023/08/18 05:24:48;;;;;;;6.88;5.75;;;25.30;71.40;;;;;;5024297;28;20025;-84
2023/08/18 05:27:14;;;;;;;6.40;5.60;;;25.30;71.40;;;;;;5023761;28;20045;-84
2023/08/18 05:29:40;;;;;;;7.00;6.05;;;25.30;70.90;;;;;;5025152;28;20478;-84
2023/08/18 05:32:05;;;;;;;7.03;6.00;;;25.30;70.80;;;;;;5024501;28;20022;-84
2023/08/18 05:34:31;;;;;;;6.97;6.07;;;25.40;70.80;;;;;;5023472;28;20049;-84
2023/08/18 05:36:57;;;;;;;6.72;5.80;;;25.50;70.60;;;;;;5024165;28;20048;-85
2023/08/18 05:39:22;;;;;;;7.85;5.85;;;25.60;70.20;;;;;;5023056;28;20080;-84
2023/08/18 05:41:48;;;;;;;9.55;5.68;;;25.60;69.60;;;;;;5020401;28;20036;-84
2023/08/18 05:44:14;;;;;;;6.65;5.78;;;25.60;69.50;;;;;;5020600;28;20041;-84
2023/08/18 05:46:40;;;;;;;7.00;5.63;;;25.60;69.60;;;;;;5018530;28;20068;-84
2023/08/18 05:49:06;;;;;;;5.82;5.22;;;25.60;70.10;;;;;;5036419;28;20041;-84
2023/08/18 05:51:32;;;;;;;6.30;5.47;;;25.60;70.20;;;;;;5035625;28;20034;-84
2023/08/18 05:53:57;;;;;;;7.15;5.18;;;25.60;70.30;;;;;;5037773;28;20022;-84
2023/08/18 05:56:23;;;;;;;8.52;5.75;;;25.60;70.30;;;;;;5020808;28;20038;-84
2023/08/18 05:58:49;;;;;;;7.72;6.03;;;25.60;70.30;;;;;;5037983;28;20045;-83
2023/08/18 06:01:17;;;;;;;7.43;5.60;;;25.60;70.30;;;;;;5010734;28;20026;-84
2023/08/18 06:03:43;;;;;;;6.78;5.32;;;25.70;70.10;;;;;;5003090;28;20054;-84
2023/08/18 06:06:09;;;;;;;5.50;4.95;;;25.70;70.20;;;;;;5018880;28;20022;-83
2023/08/18 06:08:34;;;;;;;6.30;4.88;;;25.70;70.80;;;;;;5018482;28;20517;-83
2023/08/18 06:11:00;;;;;;;6.97;5.13;;;25.80;71.00;;;;;;5003646;28;20086;-84
2023/08/18 06:13:26;;;;;;;6.45;5.85;;;25.80;71.20;;;;;;5001366;28;20046;-84
2023/08/18 06:15:54;;;;;;;5.90;5.30;;;25.90;70.80;;;;;;5032152;28;20286;-84
2023/08/18 06:18:20;;;;;;;8.75;5.82;;;25.90;70.50;;;;;;5003511;28;20094;-83
2023/08/18 06:20:46;;;;;;;6.60;6.00;;;25.90;70.10;;;;;;5003618;28;20022;-83
2023/08/18 06:23:12;;;;;;;7.32;5.50;;;26.00;70.10;;;;;;5006304;28;20080;-84
2023/08/18 06:25:38;;;;;;;6.72;5.90;;;26.00;70.40;;;;;;5029033;28;20133;-84
2023/08/18 06:28:06;;;;;;;9.27;5.15;;;26.00;70.40;;;;;;5003787;28;20042;-84
2023/08/18 06:30:32;;;;;;;7.32;5.57;;;26.10;70.50;;;;;;5035209;28;20032;-84
2023/08/18 06:32:58;;;;;;;7.53;5.80;;;26.10;70.30;;;;;;5035467;28;20475;-84
2023/08/18 06:35:23;;;;;;;9.13;5.80;;;26.10;70.10;;;;;;5020493;28;20050;-84
2023/08/18 06:37:49;;;;;;;5.90;5.30;;;26.10;69.80;;;;;;5021500;28;20034;-84
2023/08/18 06:40:15;;;;;;;6.60;5.38;;;26.10;69.90;;;;;;5022210;28;20033;-84
2023/08/18 06:42:41;;;;;;;6.93;5.10;;;26.10;70.10;;;;;;5041211;28;20120;-84
2023/08/18 06:45:07;;;;;;;8.00;5.53;;;26.10;70.30;;;;;;5034167;28;20037;-84
2023/08/18 06:47:33;;;;;;;6.30;5.20;;;26.10;69.90;;;;;;5021357;28;20116;-84
2023/08/18 06:50:00;;;;;;;6.25;5.45;;;26.20;69.90;;;;;;5017084;28;20581;-86
2023/08/18 06:52:26;;;;;;;7.35;5.97;;;26.20;69.60;;;;;;5046032;28;20052;-85
2023/08/18 06:54:52;;;;;;;5.97;5.38;;;26.20;69.90;;;;;;5029585;28;20086;-87
2023/08/18 06:57:18;;;;;;;6.75;6.05;;;26.20;70.00;;;;;;5020293;28;20076;-87
2023/08/18 06:59:43;;;;;;;7.07;5.70;;;26.20;70.40;;;;;;5009702;28;20037;-83
2023/08/18 07:02:09;;;;;;;6.15;5.53;;;26.30;70.30;;;;;;5010627;28;20049;-82
2023/08/18 07:04:35;;;;;;;6.93;5.38;;;26.30;69.80;;;;;;5010781;28;20037;-83
2023/08/18 07:07:00;;;;;;;6.03;5.22;;;26.30;69.80;;;;;;5008213;28;20116;-83
2023/08/18 07:09:26;;;;;;;6.00;5.40;;;26.30;69.80;;;;;;5009009;28;20034;-83
2023/08/18 07:11:52;;;;;;;6.18;5.57;;;26.30;69.50;;;;;;5023142;28;20030;-83
2023/08/18 07:14:17;;;;;;;7.00;5.55;;;26.30;69.50;;;;;;5008787;28;20675;-82
2023/08/18 07:16:44;;;;;;;6.40;5.57;;;26.30;69.60;;;;;;5023021;28;20025;-82
2023/08/18 07:19:09;;;;;;;5.90;5.20;;;26.40;69.50;;;;;;5006853;28;20516;-82
2023/08/18 07:21:35;;;;;;;8.23;6.25;;;26.40;69.30;;;;;;5004794;28;20025;-81
2023/08/18 07:24:01;;;;;;;7.85;5.47;;;26.40;69.40;;;;;;5004024;28;20060;-82
2023/08/18 07:26:27;;;;;;;6.20;5.60;;;26.40;69.70;;;;;;5006505;28;20048;-82
2023/08/18 07:28:53;;;;;;;7.03;5.35;;;26.40;69.70;;;;;;5010058;28;20034;-81
2023/08/18 07:31:18;;;;;;;6.55;5.88;;;26.40;69.50;;;;;;5000624;28;20088;-81
2023/08/18 07:33:44;;;;;;;8.57;5.70;;;26.40;70.00;;;;;;5005088;28;20473;-82
2023/08/18 07:36:10;;;;;;;7.13;5.88;;;26.40;69.70;;;;;;5003221;28;20050;-81
2023/08/18 07:38:36;;;;;;;8.70;4.97;;;26.40;69.90;;;;;;5006857;28;20124;-81
2023/08/18 07:41:02;;;;;;;6.60;5.82;;;26.40;70.20;;;;;;4997737;28;20030;-81
2023/08/18 07:43:27;;;;;;;8.50;6.15;;;26.40;70.20;;;;;;4998186;28;20057;-83
2023/08/18 07:45:55;;;;;;;7.35;5.85;;;26.50;70.60;;;;;;5012215;28;20030;-81
2023/08/18 07:48:20;;;;;;;7.65;6.25;;;26.50;70.70;;;;;;4999701;28;20398;-80
2023/08/18 07:50:46;;;;;;;8.25;6.05;;;26.50;70.50;;;;;;5002211;28;20247;-81
2023/08/18 07:53:12;;;;;;;8.18;6.47;;;26.50;70.70;;;;;;5011938;28;20040;-83
2023/08/18 07:55:38;;;;;;;9.07;6.07;;;26.50;71.10;;;;;;5013295;28;20101;-81
2023/08/18 07:58:04;;;;;;;6.65;5.40;;;26.60;70.80;;;;;;5011489;28;20038;-81
2023/08/18 08:00:30;;;;;;;6.18;4.70;;;26.60;70.70;;;;;;5008837;28;20030;-81
2023/08/18 08:02:57;;;;;;;8.90;4.70;;;26.60;69.50;;;;;;5025021;28;20052;-82
2023/08/18 08:05:23;;;;;;;8.90;6.10;;;26.60;69.00;;;;;;5017731;28;20025;-81
2023/08/18 08:07:49;;;;;;;9.38;5.70;;;26.60;69.60;;;;;;5009930;28;20080;-81
2023/08/18 08:10:15;;;;;;;6.50;5.22;;;26.60;69.30;;;;;;5010683;28;20026;-81
2023/08/18 08:12:41;;;;;;;7.07;4.97;;;26.60;69.30;;;;;;5021198;28;20114;-82
2023/08/18 08:15:09;;;;;;;5.93;5.00;;;26.60;69.10;;;;;;5021093;28;20117;-81
2023/08/18 08:17:34;;;;;;;6.63;4.85;;;26.70;68.90;;;;;;5009815;28;20022;-81
2023/08/18 08:20:14;;;;;;;7.47;4.70;;;26.70;68.60;;;;;;5011064;28;20045;-81
2023/08/18 08:22:39;;;;;;;6.03;4.22;;;26.70;68.10;;;;;;5006251;28;20045;-81
2023/08/18 08:25:05;;;;;;;6.30;4.80;;;26.70;67.60;;;;;;5006034;28;20466;-81
2023/08/18 08:27:31;;;;;;;5.03;4.40;;;26.70;67.30;;;;;;5006959;28;20131;-81
2023/08/18 08:29:57;;;;;;;7.28;4.47;;;26.70;67.00;;;;;;5005847;28;20474;-81
2023/08/18 08:32:23;;;;;;;7.63;4.45;;;26.70;66.50;;;;;;5024831;28;20583;-81
2023/08/18 08:34:50;;;;;;;6.88;4.18;;;26.70;66.20;;;;;;5006898;28;20064;-81
2023/08/18 08:37:17;;;;;;;5.75;4.03;;;26.70;66.50;;;;;;5007180;28;20025;-82
2023/08/18 08:39:42;;;;;;;11.32;7.38;;;26.70;66.20;;;;;;5002504;28;20441;-82
2023/08/18 08:42:08;;;;;;;7.38;5.05;;;26.70;66.10;;;;;;5014897;28;20029;-83
2023/08/18 08:44:34;;;;;;;6.63;4.45;;;26.70;66.00;;;;;;5013481;28;20026;-82
2023/08/18 08:47:00;;;;;;;10.70;4.35;;;26.70;65.60;;;;;;5020584;28;20052;-81
2023/08/18 08:49:29;;;;;;;7.82;4.15;;;26.70;66.00;;;;;;5006122;28;20039;-81
2023/08/18 08:52:00;;;;;;;4.38;3.78;;;26.70;65.70;;;;;;5003984;28;20261;-81
2023/08/18 08:54:28;;;;;;;4.38;3.97;;;26.70;65.50;;;;;;5012802;28;20018;-81
2023/08/18 08:56:54;;;;;;;5.10;3.80;;;26.70;65.30;;;;;;5006819;28;20029;-80
2023/08/18 08:59:20;;;;;;;9.15;4.10;;;26.70;65.20;;;;;;5008293;28;20022;-81
2023/08/18 09:01:46;;;;;;;5.90;3.97;;;26.70;65.10;;;;;;5021510;28;20038;-81
2023/08/18 09:04:14;;;;;;;7.78;4.03;;;26.60;65.30;;;;;;4999566;28;20026;-81
2023/08/18 09:06:39;;;;;;;4.88;3.75;;;26.60;65.00;;;;;;5003175;28;20025;-81
2023/08/18 09:09:05;;;;;;;6.38;3.88;;;26.60;65.00;;;;;;5020797;28;20044;-81
2023/08/18 09:11:46;;;;;;;5.20;3.70;;;26.60;64.60;;;;;;5005565;28;20053;-81
2023/08/18 09:14:13;;;;;;;6.20;4.18;;;26.70;65.00;;;;;;5009909;28;20030;-81
2023/08/18 09:16:39;;;;;;;5.50;4.03;;;26.60;65.90;;;;;;5026081;28;20064;-81
2023/08/18 09:19:05;;;;;;;5.30;4.00;;;26.70;66.00;;;;;;5006895;28;20030;-81
2023/08/18 09:21:34;;;;;;;4.38;3.80;;;26.60;65.10;;;;;;5008252;28;20111;-81
2023/08/18 09:24:00;;;;;;;4.35;3.60;;;26.60;64.70;;;;;;5005431;28;20030;-82
2023/08/18 09:26:28;;;;;;;5.78;3.83;;;26.60;64.00;;;;;;5007639;28;20030;-82
2023/08/18 09:28:55;;;;;;;3.90;3.60;;;26.70;63.60;;;;;;5013658;28;20076;-82
2023/08/18 09:31:21;;;;;;;5.35;3.75;;;26.60;63.50;;;;;;5027855;28;20425;-83
2023/08/18 09:33:47;;;;;;;4.15;3.50;;;26.60;63.40;;;;;;5023231;28;20501;-83
2023/08/18 09:36:13;;;;;;;5.72;3.90;;;26.60;63.30;;;;;;5006745;28;21369;-82
2023/08/18 09:38:43;;;;;;;4.45;3.80;;;26.60;63.60;;;;;;5008248;28;20044;-82
2023/08/18 09:41:10;;;;;;;4.57;4.00;;;26.60;63.30;;;;;;5010064;28;20026;-82
2023/08/18 09:43:37;;;;;;;4.30;3.90;;;26.60;63.70;;;;;;5005000;28;20029;-83
2023/08/18 09:46:06;;;;;;;4.45;3.65;;;26.60;64.00;;;;;;5022026;28;20048;-82
2023/08/18 09:48:39;;;;;;;4.15;3.60;;;26.60;64.20;;;;;;5020512;28;20052;-82
2023/08/18 09:51:12;;;;;;;6.40;4.00;;;26.60;64.30;;;;;;5025698;28;20030;-82
2023/08/18 09:53:41;;;;;;;6.57;3.92;;;26.60;64.20;;;;;;5035622;28;20097;-81
2023/08/18 09:56:23;;;;;;;6.35;4.10;;;26.60;63.50;;;;;;5026301;28;20030;-82
2023/08/18 09:58:58;;;;;;;4.47;3.95;;;26.60;63.30;;;;;;5004593;28;20022;-83
2023/08/18 10:01:27;;;;;;;5.72;3.65;;;26.60;62.70;;;;;;5020344;28;20033;-82
2023/08/18 10:03:54;;;;;;;4.68;3.58;;;26.60;63.00;;;;;;5003131;28;20036;-82
2023/08/18 10:06:21;;;;;;;5.03;3.90;;;26.60;62.70;;;;;;5010559;28;21056;-82
2023/08/18 10:08:47;;;;;;;5.93;3.85;;;26.60;62.60;;;;;;5011448;28;20485;-82
2023/08/18 10:11:14;;;;;;;6.35;3.80;;;26.60;62.30;;;;;;5006313;28;20050;-83
2023/08/18 10:13:40;;;;;;;4.28;3.58;;;26.60;62.10;;;;;;5008054;28;20032;-83
2023/08/18 10:16:06;;;;;;;7.78;4.53;;;26.60;62.10;;;;;;5010992;28;20072;-83
2023/08/18 10:18:32;;;;;;;4.03;3.47;;;26.60;62.20;;;;;;5002245;28;20306;-83
2023/08/18 10:20:59;;;;;;;4.72;3.38;;;26.60;62.10;;;;;;5004214;28;20026;-83
2023/08/18 10:23:29;;;;;;;4.53;3.70;;;26.60;62.50;;;;;;5002342;28;20103;-84
2023/08/18 10:25:54;;;;;;;5.32;4.20;;;26.60;62.90;;;;;;5020948;28;20277;-82
2023/08/18 10:28:22;;;;;;;4.50;3.58;;;26.60;63.00;;;;;;5003598;28;20128;-83
2023/08/18 10:31:11;;;;;;;4.40;3.72;;;26.60;62.60;;;;;;5003686;28;20034;-84
2023/08/18 10:33:47;;;;;;;5.35;3.85;;;26.70;63.00;;;;;;5005541;28;20092;-82
2023/08/18 10:36:26;;;;;;;5.15;3.80;;;26.60;62.60;;;;;;5006384;28;20045;-82
2023/08/18 10:38:54;;;;;;;4.38;3.80;;;26.60;62.10;;;;;;5021082;28;20025;-82
2023/08/18 10:41:29;;;;;;;5.72;3.88;;;26.60;61.90;;;;;;5014603;28;20024;-83
2023/08/18 10:43:57;;;;;;;5.07;3.58;;;26.60;62.10;;;;;;5021802;28;20044;-83
2023/08/18 10:46:49;;;;;;;6.20;3.70;;;26.60;61.90;;;;;;5019479;28;20076;-82
2023/08/18 10:49:15;;;;;;;4.95;3.70;;;26.60;62.10;;;;;;5032415;28;20072;-82
2023/08/18 10:51:41;;;;;;;5.22;3.47;;;26.60;62.20;;;;;;5029707;28;20029;-82
2023/08/18 10:54:07;;;;;;;7.03;3.45;;;26.60;62.10;;;;;;5010193;28;20057;-81
2023/08/18 10:56:33;;;;;;;4.15;3.60;;;26.60;61.90;;;;;;5001343;28;20053;-82
2023/08/18 10:58:58;;;;;;;4.40;3.75;;;26.60;62.00;;;;;;5027431;28;20034;-82
2023/08/18 11:01:24;;;;;;;5.05;3.67;;;26.60;61.80;;;;;;5023761;28;20030;-83
2023/08/18 11:03:50;;;;;;;4.10;3.70;;;26.60;61.90;;;;;;5015770;28;20036;-82
2023/08/18 11:06:16;;;;;;;5.45;3.67;;;26.60;61.80;;;;;;5010355;28;20045;-82
2023/08/18 11:08:42;;;;;;;4.60;3.88;;;26.60;61.80;;;;;;5027545;28;20045;-82
2023/08/18 11:11:09;;;;;;;5.65;3.80;;;26.60;61.60;;;;;;5013651;28;20079;-82
2023/08/18 11:13:35;;;;;;;5.45;3.63;;;26.60;61.40;;;;;;5007737;28;20428;-82
2023/08/18 11:16:01;;;;;;;4.68;3.72;;;26.60;61.40;;;;;;5015248;28;20026;-82
2023/08/18 11:18:27;;;;;;;8.23;4.13;;;26.60;61.30;;;;;;5025912;28;20068;-82
2023/08/18 11:20:53;;;;;;;5.22;3.83;;;26.60;61.30;;;;;;5009298;28;20131;-81
2023/08/18 11:23:19;;;;;;;4.28;3.78;;;26.60;61.50;;;;;;5025439;28;20053;-81
2023/08/18 11:25:45;;;;;;;4.43;3.22;;;26.60;61.30;;;;;;5012863;28;20030;-81
2023/08/18 11:28:14;;;;;;;4.60;3.30;;;26.70;61.40;;;;;;5009924;28;20030;-82
2023/08/18 11:30:40;;;;;;;4.20;3.30;;;26.70;61.70;;;;;;5011446;28;20081;-81
2023/08/18 11:33:05;;;;;;;4.78;4.07;;;26.60;62.10;;;;;;5018616;28;20493;-82
2023/08/18 11:35:32;;;;;;;5.05;3.72;;;26.70;62.20;;;;;;5011129;28;21431;-82
2023/08/18 11:37:57;;;;;;;7.85;3.72;;;26.70;62.20;;;;;;5005261;28;20371;-83
2023/08/18 11:40:24;;;;;;;4.68;3.75;;;26.70;62.20;;;;;;5008143;28;20064;-82
2023/08/18 11:42:52;;;;;;;5.47;4.30;;;26.70;62.60;;;;;;5008135;28;20402;-83
2023/08/18 11:45:23;;;;;;;4.63;4.10;;;26.70;62.90;;;;;;5009609;28;20280;-83
2023/08/18 11:48:00;;;;;;;5.63;3.60;;;26.70;62.80;;;;;;5010507;28;20233;-83
2023/08/18 11:50:30;;;;;;;5.00;4.00;;;26.70;63.00;;;;;;5012031;28;20025;-83
2023/08/18 11:52:55;;;;;;;4.53;3.60;;;26.70;62.90;;;;;;5011290;28;20022;-83
2023/08/18 11:55:44;;;;;;;4.00;3.60;;;26.70;62.70;;;;;;5007906;28;20025;-82
2023/08/18 11:58:14;;;;;;;3.92;3.53;;;26.70;62.60;;;;;;5012036;28;20022;-83
2023/08/18 12:00:41;;;;;;;3.92;3.38;;;26.70;62.50;;;;;;5011047;28;20038;-83
2023/08/18 12:03:25;;;;;;;4.32;3.42;;;26.70;62.20;;;;;;5019221;28;20496;-83
2023/08/18 12:05:53;;;;;;;6.18;3.90;;;26.70;62.00;;;;;;5030147;28;20033;-83
2023/08/18 12:08:19;;;;;;;6.90;3.80;;;26.70;62.00;;;;;;5008014;28;20104;-82
2023/08/18 12:10:48;;;;;;;4.00;3.58;;;26.70;62.00;;;;;;5007755;28;20482;-82
2023/08/18 12:13:13;;;;;;;5.75;3.90;;;26.60;62.10;;;;;;5012292;28;20036;-82
2023/08/18 12:15:39;;;;;;;5.55;3.55;;;26.60;62.10;;;;;;5013271;28;20116;-84
2023/08/18 12:18:05;;;;;;;3.88;3.55;;;26.60;62.40;;;;;;5014371;28;20036;-82
2023/08/18 12:20:32;;;;;;;4.40;3.45;;;26.60;62.40;;;;;;5006072;28;20029;-82
2023/08/18 12:22:57;;;;;;;4.22;3.53;;;26.60;62.30;;;;;;5022943;28;20513;-82
2023/08/18 12:25:24;;;;;;;3.85;3.50;;;26.60;62.20;;;;;;5008228;28;20038;-81
2023/08/18 12:27:50;;;;;;;5.75;4.13;;;26.70;62.90;;;;;;5007545;28;20034;-81
2023/08/18 12:30:17;;;;;;;4.45;3.80;;;26.60;63.80;;;;;;5006403;28;20029;-81
2023/08/18 12:32:45;;;;;;;4.10;3.70;;;26.60;63.20;;;;;;5003411;28;20037;-82
2023/08/18 12:35:11;;;;;;;4.38;3.63;;;26.60;62.90;;;;;;5011853;28;20506;-81
2023/08/18 12:37:36;;;;;;;4.30;3.67;;;26.60;62.80;;;;;;5022446;28;20046;-81
2023/08/18 12:40:05;;;;;;;6.25;4.00;;;26.60;62.70;;;;;;5022068;28;20034;-81
2023/08/18 12:42:34;;;;;;;4.80;4.03;;;26.60;62.50;;;;;;5027655;28;20481;-81
2023/08/18 12:45:00;;;;;;;4.65;3.92;;;26.60;62.30;;;;;;5011899;28;20056;-81
2023/08/18 12:47:25;;;;;;;3.97;3.55;;;26.60;62.30;;;;;;5008607;28;20026;-82